»·PEaware :: N899M KSAC-KLAS

N899M :: KSAC-KLAS

FLIGHT INFORMATION

Flight Status: Arrived
Operator: Privately registered:
United States
More flights under this callsign
Pilot: Robert C. (30425)
Aircraft: Unknown
(EPIC)
More flights by this aircraft type
Origin: KSAC Sacramento Executive
United States
Destination: KLAS McCarran Intl
United States
More flights between these airports :: More routes between these airports
Route: GALTS V23 LIN V244 OAL V105 LUCKY
File this flight plan on PilotEdge
Remarks:
Altitude:
(Current/Filed)
17,000ft
Speed:
(Current/Filed)
300kts
Departed: 13-Oct-20 07:24 PM
Arrived: 13-Oct-20 08:54 PM
Distance/Time
Traveled:
335nm/1:30
Distance/Time
To Go:
Arrived

Flight Plot

Page will automatically refresh every two minutes.

Flight plan parsing failed; only flown route is shown


Map Options




Map Legend


Flown Route
Filed Route
Departure Airport
Arrival Airport
Navaid (VOR, NDB)
Fix

Horizontal Profiles

Position Reports

Time Latitude Longitude Heading Altitude Ground
Speed
13-Oct-20 19:03 38.520098 -121.492906 235 24ft 0kts
13-Oct-20 19:04 38.520098 -121.492906 235 24ft 0kts
13-Oct-20 19:05 38.520098 -121.492906 235 24ft 0kts
13-Oct-20 19:06 38.520098 -121.492906 235 24ft 0kts
13-Oct-20 19:06 38.520098 -121.492906 235 24ft 0kts
13-Oct-20 19:08 38.520098 -121.492906 235 24ft 0kts
13-Oct-20 19:08 38.520098 -121.492906 235 24ft 0kts
13-Oct-20 19:10 38.520098 -121.492906 235 24ft 0kts
13-Oct-20 19:10 38.520098 -121.492906 235 24ft 0kts
13-Oct-20 19:11 38.520098 -121.492906 235 24ft 0kts
13-Oct-20 19:12 38.520098 -121.492906 235 24ft 0kts
13-Oct-20 19:13 38.520098 -121.492906 235 24ft 0kts
13-Oct-20 19:14 38.520098 -121.492906 235 24ft 0kts
13-Oct-20 19:15 38.519963 -121.493076 222 24ft 3kts
13-Oct-20 19:16 38.519444 -121.492159 99 23ft 4kts
13-Oct-20 19:17 38.519214 -121.490639 100 23ft 4kts
13-Oct-20 19:18 38.519209 -121.490601 100 23ft 0kts
13-Oct-20 19:19 38.519209 -121.490601 100 23ft 0kts
13-Oct-20 19:20 38.519209 -121.490601 100 23ft 0kts
13-Oct-20 19:21 38.519209 -121.490601 100 23ft 0kts
13-Oct-20 19:22 38.518988 -121.489506 145 23ft 12kts
13-Oct-20 19:23 38.501308 -121.503540 213 601ft 149kts
13-Oct-20 19:24 38.457299 -121.496190 163 1974ft 180kts
13-Oct-20 19:25 38.404885 -121.474983 163 2246ft 194kts
13-Oct-20 19:26 38.357740 -121.454392 145 3985ft 176kts
13-Oct-20 19:27 38.329963 -121.403653 125 5768ft 180kts
13-Oct-20 19:28 38.295668 -121.339941 124 7570ft 245kts
13-Oct-20 19:29 38.252499 -121.266774 130 9391ft 271kts
13-Oct-20 19:30 38.202325 -121.192292 130 11201ft 282kts
13-Oct-20 19:31 38.150573 -121.115769 130 13008ft 288kts
13-Oct-20 19:32 38.097998 -121.038216 130 14814ft 290kts
13-Oct-20 19:33 38.071306 -120.944985 94 16647ft 290kts
13-Oct-20 19:34 38.064190 -120.837052 93 17037ft 318kts
13-Oct-20 19:35 38.057073 -120.725556 93 17071ft 316kts
13-Oct-20 19:36 38.049893 -120.614654 93 17075ft 316kts
13-Oct-20 19:37 38.042554 -120.502972 93 17071ft 317kts
13-Oct-20 19:38 38.035116 -120.391389 93 17067ft 317kts
13-Oct-20 19:39 38.027582 -120.280009 94 17061ft 317kts
13-Oct-20 19:40 38.019933 -120.168475 94 17088ft 316kts
13-Oct-20 19:41 38.012205 -120.057347 94 17138ft 316kts
13-Oct-20 19:42 38.004402 -119.946645 94 17187ft 315kts
13-Oct-20 19:43 37.996468 -119.835602 94 17258ft 315kts
13-Oct-20 19:44 37.988472 -119.725153 94 17329ft 315kts
13-Oct-20 19:45 37.980355 -119.614495 94 17340ft 316kts
13-Oct-20 19:46 37.972091 -119.503288 94 17348ft 317kts
13-Oct-20 19:47 37.963695 -119.391729 94 17349ft 317kts
13-Oct-20 19:48 37.955193 -119.280208 94 17347ft 317kts
13-Oct-20 19:49 37.946598 -119.168828 94 17347ft 317kts
13-Oct-20 19:50 37.950693 -119.057407 85 17348ft 317kts
13-Oct-20 19:51 37.955817 -118.946181 85 17348ft 316kts
13-Oct-20 19:52 37.960842 -118.834866 85 17348ft 316kts
13-Oct-20 19:53 37.965750 -118.723760 85 17335ft 315kts
13-Oct-20 19:54 37.970453 -118.612535 86 17307ft 316kts
13-Oct-20 19:55 37.975137 -118.501066 86 17260ft 316kts
13-Oct-20 19:56 37.979739 -118.389347 86 17191ft 317kts
13-Oct-20 19:57 37.984242 -118.277379 86 17142ft 316kts
13-Oct-20 19:58 37.988613 -118.166144 86 17143ft 315kts
13-Oct-20 19:59 37.992880 -118.054853 86 17145ft 315kts
13-Oct-20 20:00 37.997027 -117.943995 86 17156ft 314kts
13-Oct-20 20:01 38.001067 -117.833175 86 17168ft 314kts
13-Oct-20 20:02 37.966201 -117.739532 143 17197ft 313kts
13-Oct-20 20:03 37.895650 -117.677201 146 17198ft 306kts
13-Oct-20 20:04 37.825744 -117.616837 146 17219ft 302kts
13-Oct-20 20:05 37.756256 -117.556982 146 17229ft 301kts
13-Oct-20 20:06 37.687198 -117.497614 146 17229ft 300kts
13-Oct-20 20:07 37.617962 -117.438242 146 17229ft 300kts
13-Oct-20 20:08 37.548746 -117.379039 146 17227ft 300kts
13-Oct-20 20:09 37.479260 -117.319741 146 17227ft 300kts
13-Oct-20 20:10 37.411294 -117.261871 146 17228ft 300kts
13-Oct-20 20:11 37.341968 -117.202974 146 17228ft 300kts
13-Oct-20 20:12 37.272851 -117.144386 146 17228ft 300kts
13-Oct-20 20:13 37.203448 -117.085691 146 17228ft 300kts
13-Oct-20 20:14 37.133575 -117.026732 146 17146ft 303kts
13-Oct-20 20:15 37.063496 -116.967741 146 17147ft 303kts
13-Oct-20 20:16 36.993372 -116.908828 145 17147ft 303kts
13-Oct-20 20:17 36.923552 -116.850304 145 17110ft 304kts
13-Oct-20 20:18 36.853199 -116.791474 145 17031ft 304kts
13-Oct-20 20:19 36.784080 -116.731528 141 16991ft 303kts
13-Oct-20 20:20 36.717483 -116.667279 141 16990ft 302kts
13-Oct-20 20:21 36.650960 -116.603180 141 16990ft 302kts
13-Oct-20 20:22 36.590474 -116.545022 141 16990ft 301kts
13-Oct-20 20:23 36.524064 -116.481305 141 16990ft 301kts
13-Oct-20 20:24 36.457737 -116.417809 141 16991ft 301kts
13-Oct-20 20:25 36.391084 -116.354141 141 16991ft 301kts
13-Oct-20 20:26 36.324472 -116.290655 142 16990ft 301kts
13-Oct-20 20:27 36.258008 -116.227450 142 16990ft 302kts
13-Oct-20 20:28 36.191301 -116.164153 142 16991ft 302kts
13-Oct-20 20:29 36.126815 -116.103106 142 16986ft 279kts
13-Oct-20 20:30 36.067891 -116.047426 141 16987ft 255kts
13-Oct-20 20:31 36.032098 -115.982151 88 16996ft 235kts
13-Oct-20 20:32 36.035335 -115.902774 83 16989ft 228kts
13-Oct-20 20:33 36.040183 -115.824985 83 16977ft 227kts
13-Oct-20 20:34 36.044994 -115.747072 83 16965ft 227kts
13-Oct-20 20:35 36.049887 -115.666851 83 16442ft 248kts
13-Oct-20 20:36 36.055090 -115.580692 83 15358ft 252kts
13-Oct-20 20:37 36.060325 -115.494501 83 13900ft 250kts
13-Oct-20 20:38 36.065862 -115.409481 83 12406ft 246kts
13-Oct-20 20:39 36.071465 -115.325749 83 11013ft 242kts
13-Oct-20 20:40 36.076960 -115.245162 83 10982ft 223kts
13-Oct-20 20:41 36.081957 -115.171118 83 10521ft 207kts
13-Oct-20 20:42 36.086947 -115.101790 83 9109ft 198kts
13-Oct-20 20:43 36.116703 -115.050469 41 7667ft 189kts
13-Oct-20 20:44 36.154936 -115.005382 41 6077ft 189kts
13-Oct-20 20:45 36.188490 -115.013323 271 5141ft 149kts
13-Oct-20 20:47 36.198514 -115.056937 295 4366ft 133kts
13-Oct-20 20:48 36.211040 -115.092475 285 3450ft 102kts
13-Oct-20 20:49 36.214779 -115.125101 269 2823ft 93kts
13-Oct-20 20:50 36.208772 -115.152527 201 3539ft 80kts
13-Oct-20 20:51 36.175699 -115.146450 171 4056ft 168kts
13-Oct-20 20:52 36.133533 -115.140855 191 3462ft 126kts
13-Oct-20 20:53 36.103554 -115.153817 205 2279ft 108kts
13-Oct-20 20:54 36.089389 -115.162417 223 2125ft 13kts
13-Oct-20 20:55 36.090867 -115.163887 25 2125ft 17kts
13-Oct-20 20:56 36.097387 -115.160211 3 2097ft 15kts
13-Oct-20 20:57 36.097531 -115.161939 255 2104ft 6kts
13-Oct-20 20:58 36.097771 -115.162561 354 2107ft 0kts
13-Oct-20 20:59 36.097771 -115.162561 354 2107ft 0kts
13-Oct-20 21:00 36.097771 -115.162561 354 2107ft 0kts

Navigation Log

Ident Type
Flight plan parsing failed, navigation log unavailable